sensor_id;sensor_type;location;lat;lon;timestamp;P1;durP1;ratioP1;P2;durP2;ratioP2
8139;SDS011;4111;50.972;7.072;2022-10-10T00:00:27;7.17;;;3.00;;
8139;SDS011;4111;50.972;7.072;2022-10-10T00:02:54;3.27;;;2.50;;
8139;SDS011;4111;50.972;7.072;2022-10-10T00:05:20;6.43;;;2.80;;
8139;SDS011;4111;50.972;7.072;2022-10-10T00:07:47;3.87;;;2.93;;
8139;SDS011;4111;50.972;7.072;2022-10-10T00:10:13;3.13;;;2.53;;
8139;SDS011;4111;50.972;7.072;2022-10-10T00:12:40;2.57;;;2.37;;
8139;SDS011;4111;50.972;7.072;2022-10-10T00:15:06;2.73;;;2.53;;
8139;SDS011;4111;50.972;7.072;2022-10-10T00:17:33;5.27;;;2.77;;
8139;SDS011;4111;50.972;7.072;2022-10-10T00:19:59;4.13;;;2.73;;
8139;SDS011;4111;50.972;7.072;2022-10-10T00:22:26;3.40;;;2.70;;
8139;SDS011;4111;50.972;7.072;2022-10-10T00:24:53;4.07;;;2.47;;
8139;SDS011;4111;50.972;7.072;2022-10-10T00:27:19;3.03;;;2.30;;
8139;SDS011;4111;50.972;7.072;2022-10-10T00:29:45;2.63;;;2.43;;
8139;SDS011;4111;50.972;7.072;2022-10-10T00:32:12;4.57;;;2.30;;
8139;SDS011;4111;50.972;7.072;2022-10-10T00:34:38;2.17;;;1.97;;
8139;SDS011;4111;50.972;7.072;2022-10-10T00:37:04;2.70;;;2.50;;
8139;SDS011;4111;50.972;7.072;2022-10-10T00:39:31;2.73;;;2.40;;
8139;SDS011;4111;50.972;7.072;2022-10-10T00:41:57;3.07;;;2.60;;
8139;SDS011;4111;50.972;7.072;2022-10-10T00:44:26;3.23;;;2.17;;
8139;SDS011;4111;50.972;7.072;2022-10-10T00:46:52;4.67;;;2.33;;
8139;SDS011;4111;50.972;7.072;2022-10-10T00:49:20;3.20;;;2.10;;
8139;SDS011;4111;50.972;7.072;2022-10-10T00:51:51;3.40;;;2.30;;
8139;SDS011;4111;50.972;7.072;2022-10-10T00:54:21;2.33;;;2.13;;
8139;SDS011;4111;50.972;7.072;2022-10-10T00:56:50;4.97;;;2.37;;
8139;SDS011;4111;50.972;7.072;2022-10-10T00:59:20;2.70;;;2.43;;
8139;SDS011;4111;50.972;7.072;2022-10-10T01:01:48;2.17;;;2.07;;
8139;SDS011;4111;50.972;7.072;2022-10-10T01:07:29;3.73;;;2.50;;
8139;SDS011;4111;50.972;7.072;2022-10-10T01:09:58;2.97;;;2.20;;
8139;SDS011;4111;50.972;7.072;2022-10-10T01:12:44;3.53;;;2.30;;
8139;SDS011;4111;50.972;7.072;2022-10-10T01:18:27;3.00;;;2.07;;
8139;SDS011;4111;50.972;7.072;2022-10-10T01:21:02;2.63;;;2.40;;
8139;SDS011;4111;50.972;7.072;2022-10-10T01:32:07;3.33;;;2.13;;
8139;SDS011;4111;50.972;7.072;2022-10-10T01:37:18;2.37;;;2.23;;
8139;SDS011;4111;50.972;7.072;2022-10-10T01:39:52;2.00;;;1.87;;
8139;SDS011;4111;50.972;7.072;2022-10-10T01:42:33;2.23;;;2.03;;
8139;SDS011;4111;50.972;7.072;2022-10-10T01:45:00;2.23;;;2.03;;
8139;SDS011;4111;50.972;7.072;2022-10-10T01:47:26;5.47;;;2.27;;
8139;SDS011;4111;50.972;7.072;2022-10-10T01:49:54;3.33;;;2.20;;
8139;SDS011;4111;50.972;7.072;2022-10-10T01:55:39;2.17;;;1.97;;
8139;SDS011;4111;50.972;7.072;2022-10-10T01:58:26;2.03;;;1.90;;
8139;SDS011;4111;50.972;7.072;2022-10-10T02:04:08;2.30;;;2.10;;
8139;SDS011;4111;50.972;7.072;2022-10-10T02:06:39;2.10;;;2.00;;
8139;SDS011;4111;50.972;7.072;2022-10-10T02:09:11;2.30;;;2.03;;
8139;SDS011;4111;50.972;7.072;2022-10-10T02:11:44;2.67;;;2.10;;
8139;SDS011;4111;50.972;7.072;2022-10-10T02:14:19;4.23;;;2.07;;
8139;SDS011;4111;50.972;7.072;2022-10-10T02:16:49;4.60;;;2.23;;
8139;SDS011;4111;50.972;7.072;2022-10-10T02:19:20;2.40;;;2.00;;
8139;SDS011;4111;50.972;7.072;2022-10-10T02:21:48;2.40;;;2.10;;
8139;SDS011;4111;50.972;7.072;2022-10-10T02:24:18;1.87;;;1.70;;
8139;SDS011;4111;50.972;7.072;2022-10-10T02:26:51;2.30;;;2.10;;
8139;SDS011;4111;50.972;7.072;2022-10-10T02:29:28;3.27;;;2.30;;
8139;SDS011;4111;50.972;7.072;2022-10-10T02:32:06;2.67;;;2.03;;
8139;SDS011;4111;50.972;7.072;2022-10-10T02:34:41;4.83;;;2.60;;
8139;SDS011;4111;50.972;7.072;2022-10-10T02:37:11;2.60;;;2.07;;
8139;SDS011;4111;50.972;7.072;2022-10-10T02:39:46;2.30;;;2.07;;
8139;SDS011;4111;50.972;7.072;2022-10-10T02:42:16;5.67;;;2.30;;
8139;SDS011;4111;50.972;7.072;2022-10-10T02:44:46;3.73;;;2.30;;
8139;SDS011;4111;50.972;7.072;2022-10-10T02:47:13;2.00;;;1.90;;
8139;SDS011;4111;50.972;7.072;2022-10-10T02:49:40;2.73;;;2.13;;
8139;SDS011;4111;50.972;7.072;2022-10-10T02:52:06;3.17;;;2.10;;
8139;SDS011;4111;50.972;7.072;2022-10-10T02:54:33;3.53;;;2.23;;
8139;SDS011;4111;50.972;7.072;2022-10-10T02:57:00;6.77;;;2.17;;
8139;SDS011;4111;50.972;7.072;2022-10-10T02:59:26;2.40;;;2.20;;
8139;SDS011;4111;50.972;7.072;2022-10-10T03:01:52;2.47;;;2.20;;
8139;SDS011;4111;50.972;7.072;2022-10-10T03:04:19;3.37;;;2.37;;
8139;SDS011;4111;50.972;7.072;2022-10-10T03:06:45;3.20;;;2.67;;
8139;SDS011;4111;50.972;7.072;2022-10-10T03:09:11;2.77;;;2.03;;
8139;SDS011;4111;50.972;7.072;2022-10-10T03:11:38;2.67;;;2.47;;
8139;SDS011;4111;50.972;7.072;2022-10-10T03:14:05;2.50;;;2.30;;
8139;SDS011;4111;50.972;7.072;2022-10-10T03:16:31;3.17;;;2.33;;
8139;SDS011;4111;50.972;7.072;2022-10-10T03:18:58;2.50;;;2.30;;
8139;SDS011;4111;50.972;7.072;2022-10-10T03:21:25;2.80;;;2.00;;
8139;SDS011;4111;50.972;7.072;2022-10-10T03:23:51;2.43;;;2.17;;
8139;SDS011;4111;50.972;7.072;2022-10-10T03:26:18;2.80;;;2.23;;
8139;SDS011;4111;50.972;7.072;2022-10-10T03:28:44;3.00;;;2.30;;
8139;SDS011;4111;50.972;7.072;2022-10-10T03:31:11;5.50;;;2.20;;
8139;SDS011;4111;50.972;7.072;2022-10-10T03:33:37;3.37;;;2.33;;
8139;SDS011;4111;50.972;7.072;2022-10-10T03:36:04;3.57;;;2.40;;
8139;SDS011;4111;50.972;7.072;2022-10-10T03:38:30;3.37;;;2.30;;
8139;SDS011;4111;50.972;7.072;2022-10-10T03:40:57;2.50;;;2.30;;
8139;SDS011;4111;50.972;7.072;2022-10-10T03:43:23;2.60;;;2.40;;
8139;SDS011;4111;50.972;7.072;2022-10-10T03:45:50;3.13;;;2.47;;
8139;SDS011;4111;50.972;7.072;2022-10-10T03:48:16;3.07;;;2.47;;
8139;SDS011;4111;50.972;7.072;2022-10-10T03:50:43;2.50;;;2.30;;
8139;SDS011;4111;50.972;7.072;2022-10-10T03:53:09;2.57;;;2.37;;
8139;SDS011;4111;50.972;7.072;2022-10-10T03:55:40;3.37;;;2.67;;
8139;SDS011;4111;50.972;7.072;2022-10-10T03:58:08;2.30;;;2.10;;
8139;SDS011;4111;50.972;7.072;2022-10-10T04:00:34;3.40;;;2.40;;
8139;SDS011;4111;50.972;7.072;2022-10-10T04:03:01;3.63;;;2.37;;
8139;SDS011;4111;50.972;7.072;2022-10-10T04:05:32;5.83;;;2.20;;
8139;SDS011;4111;50.972;7.072;2022-10-10T04:07:59;2.47;;;2.10;;
8139;SDS011;4111;50.972;7.072;2022-10-10T04:10:26;2.50;;;2.30;;
8139;SDS011;4111;50.972;7.072;2022-10-10T04:12:52;3.33;;;2.57;;
8139;SDS011;4111;50.972;7.072;2022-10-10T04:15:19;2.30;;;2.10;;
8139;SDS011;4111;50.972;7.072;2022-10-10T04:17:45;2.43;;;2.23;;
8139;SDS011;4111;50.972;7.072;2022-10-10T04:20:12;3.67;;;2.40;;
8139;SDS011;4111;50.972;7.072;2022-10-10T04:22:38;5.57;;;2.80;;
8139;SDS011;4111;50.972;7.072;2022-10-10T04:25:05;3.50;;;2.40;;
8139;SDS011;4111;50.972;7.072;2022-10-10T04:27:31;3.20;;;2.23;;
8139;SDS011;4111;50.972;7.072;2022-10-10T04:29:57;5.40;;;2.47;;
8139;SDS011;4111;50.972;7.072;2022-10-10T04:32:24;2.97;;;2.30;;
8139;SDS011;4111;50.972;7.072;2022-10-10T04:34:50;3.57;;;2.30;;
8139;SDS011;4111;50.972;7.072;2022-10-10T04:37:17;3.70;;;2.27;;
8139;SDS011;4111;50.972;7.072;2022-10-10T04:39:43;3.40;;;2.33;;
8139;SDS011;4111;50.972;7.072;2022-10-10T04:42:09;6.07;;;2.67;;
8139;SDS011;4111;50.972;7.072;2022-10-10T04:44:37;3.77;;;2.53;;
8139;SDS011;4111;50.972;7.072;2022-10-10T04:47:03;10.83;;;2.33;;
8139;SDS011;4111;50.972;7.072;2022-10-10T04:49:30;4.60;;;2.60;;
8139;SDS011;4111;50.972;7.072;2022-10-10T04:51:56;3.03;;;2.47;;
8139;SDS011;4111;50.972;7.072;2022-10-10T04:54:22;4.63;;;2.53;;
8139;SDS011;4111;50.972;7.072;2022-10-10T04:56:49;2.50;;;2.30;;
8139;SDS011;4111;50.972;7.072;2022-10-10T04:59:15;3.50;;;2.17;;
8139;SDS011;4111;50.972;7.072;2022-10-10T05:01:42;3.53;;;2.47;;
8139;SDS011;4111;50.972;7.072;2022-10-10T05:04:08;4.23;;;2.27;;
8139;SDS011;4111;50.972;7.072;2022-10-10T05:06:35;3.40;;;2.73;;
8139;SDS011;4111;50.972;7.072;2022-10-10T05:09:01;4.93;;;2.33;;
8139;SDS011;4111;50.972;7.072;2022-10-10T05:11:27;3.20;;;2.57;;
8139;SDS011;4111;50.972;7.072;2022-10-10T05:13:54;4.57;;;2.67;;
8139;SDS011;4111;50.972;7.072;2022-10-10T05:16:20;3.87;;;3.13;;
8139;SDS011;4111;50.972;7.072;2022-10-10T05:18:47;4.33;;;3.00;;
8139;SDS011;4111;50.972;7.072;2022-10-10T05:21:13;3.87;;;2.83;;
8139;SDS011;4111;50.972;7.072;2022-10-10T05:23:40;4.47;;;2.70;;
8139;SDS011;4111;50.972;7.072;2022-10-10T05:26:06;5.07;;;2.60;;
8139;SDS011;4111;50.972;7.072;2022-10-10T05:28:34;3.77;;;2.73;;
8139;SDS011;4111;50.972;7.072;2022-10-10T05:31:02;7.87;;;2.90;;
8139;SDS011;4111;50.972;7.072;2022-10-10T05:33:29;4.43;;;2.57;;
8139;SDS011;4111;50.972;7.072;2022-10-10T05:36:03;3.27;;;2.97;;
8139;SDS011;4111;50.972;7.072;2022-10-10T05:38:31;4.73;;;2.97;;
8139;SDS011;4111;50.972;7.072;2022-10-10T05:40:58;3.50;;;3.20;;
8139;SDS011;4111;50.972;7.072;2022-10-10T05:43:25;3.73;;;3.20;;
8139;SDS011;4111;50.972;7.072;2022-10-10T05:45:51;3.77;;;3.03;;
8139;SDS011;4111;50.972;7.072;2022-10-10T05:48:18;4.87;;;3.10;;
8139;SDS011;4111;50.972;7.072;2022-10-10T05:50:45;4.50;;;3.30;;
8139;SDS011;4111;50.972;7.072;2022-10-10T05:53:14;5.07;;;3.10;;
8139;SDS011;4111;50.972;7.072;2022-10-10T05:55:40;6.67;;;3.30;;
8139;SDS011;4111;50.972;7.072;2022-10-10T05:58:08;3.20;;;2.90;;
8139;SDS011;4111;50.972;7.072;2022-10-10T06:00:35;3.97;;;2.90;;
8139;SDS011;4111;50.972;7.072;2022-10-10T06:03:01;4.87;;;2.87;;
8139;SDS011;4111;50.972;7.072;2022-10-10T06:05:28;5.40;;;3.10;;
8139;SDS011;4111;50.972;7.072;2022-10-10T06:07:54;4.33;;;3.33;;
8139;SDS011;4111;50.972;7.072;2022-10-10T06:10:40;3.07;;;2.87;;
8139;SDS011;4111;50.972;7.072;2022-10-10T06:13:09;5.43;;;3.13;;
8139;SDS011;4111;50.972;7.072;2022-10-10T06:15:37;4.70;;;2.80;;
8139;SDS011;4111;50.972;7.072;2022-10-10T06:18:04;3.27;;;2.97;;
8139;SDS011;4111;50.972;7.072;2022-10-10T06:20:35;6.47;;;3.33;;
8139;SDS011;4111;50.972;7.072;2022-10-10T06:23:03;4.53;;;2.80;;
8139;SDS011;4111;50.972;7.072;2022-10-10T06:25:31;4.60;;;3.20;;
8139;SDS011;4111;50.972;7.072;2022-10-10T06:28:07;4.10;;;3.20;;
8139;SDS011;4111;50.972;7.072;2022-10-10T06:30:38;4.97;;;4.47;;
8139;SDS011;4111;50.972;7.072;2022-10-10T06:33:05;4.87;;;2.97;;
8139;SDS011;4111;50.972;7.072;2022-10-10T06:35:32;4.47;;;3.03;;
8139;SDS011;4111;50.972;7.072;2022-10-10T06:37:58;5.10;;;3.30;;
8139;SDS011;4111;50.972;7.072;2022-10-10T06:40:25;3.97;;;2.80;;
8139;SDS011;4111;50.972;7.072;2022-10-10T06:42:51;14.70;;;3.03;;
8139;SDS011;4111;50.972;7.072;2022-10-10T06:45:18;3.60;;;3.30;;
8139;SDS011;4111;50.972;7.072;2022-10-10T06:47:45;3.53;;;3.00;;
8139;SDS011;4111;50.972;7.072;2022-10-10T06:50:11;3.10;;;2.80;;
8139;SDS011;4111;50.972;7.072;2022-10-10T06:52:38;4.60;;;2.73;;
8139;SDS011;4111;50.972;7.072;2022-10-10T06:55:05;5.53;;;2.87;;
8139;SDS011;4111;50.972;7.072;2022-10-10T06:57:32;3.50;;;3.20;;
8139;SDS011;4111;50.972;7.072;2022-10-10T06:59:58;6.47;;;3.00;;
8139;SDS011;4111;50.972;7.072;2022-10-10T07:02:25;3.27;;;2.57;;
8139;SDS011;4111;50.972;7.072;2022-10-10T07:04:52;5.10;;;2.63;;
8139;SDS011;4111;50.972;7.072;2022-10-10T07:07:18;6.33;;;2.87;;
8139;SDS011;4111;50.972;7.072;2022-10-10T07:09:45;3.60;;;2.83;;
8139;SDS011;4111;50.972;7.072;2022-10-10T07:12:11;4.00;;;2.60;;
8139;SDS011;4111;50.972;7.072;2022-10-10T07:14:38;4.33;;;2.90;;
8139;SDS011;4111;50.972;7.072;2022-10-10T07:17:04;5.67;;;2.57;;
8139;SDS011;4111;50.972;7.072;2022-10-10T07:19:30;4.20;;;2.70;;
8139;SDS011;4111;50.972;7.072;2022-10-10T07:21:57;7.20;;;2.73;;
8139;SDS011;4111;50.972;7.072;2022-10-10T07:24:23;7.27;;;2.77;;
8139;SDS011;4111;50.972;7.072;2022-10-10T07:26:50;4.87;;;2.73;;
8139;SDS011;4111;50.972;7.072;2022-10-10T07:29:30;3.73;;;2.80;;
8139;SDS011;4111;50.972;7.072;2022-10-10T07:31:56;5.90;;;3.10;;
8139;SDS011;4111;50.972;7.072;2022-10-10T07:34:23;4.27;;;2.40;;
8139;SDS011;4111;50.972;7.072;2022-10-10T07:36:49;4.17;;;2.70;;
8139;SDS011;4111;50.972;7.072;2022-10-10T07:39:19;6.17;;;2.70;;
8139;SDS011;4111;50.972;7.072;2022-10-10T07:41:47;5.00;;;2.73;;
8139;SDS011;4111;50.972;7.072;2022-10-10T07:44:15;4.20;;;3.10;;
8139;SDS011;4111;50.972;7.072;2022-10-10T07:46:41;4.23;;;2.60;;
8139;SDS011;4111;50.972;7.072;2022-10-10T07:49:08;4.57;;;2.77;;
8139;SDS011;4111;50.972;7.072;2022-10-10T07:51:35;5.50;;;2.60;;
8139;SDS011;4111;50.972;7.072;2022-10-10T07:54:02;4.40;;;2.87;;
8139;SDS011;4111;50.972;7.072;2022-10-10T07:56:29;8.23;;;2.60;;
8139;SDS011;4111;50.972;7.072;2022-10-10T07:58:55;3.57;;;2.63;;
8139;SDS011;4111;50.972;7.072;2022-10-10T08:01:22;8.90;;;3.10;;
8139;SDS011;4111;50.972;7.072;2022-10-10T08:03:49;5.30;;;3.00;;
8139;SDS011;4111;50.972;7.072;2022-10-10T08:06:15;4.27;;;3.00;;
8139;SDS011;4111;50.972;7.072;2022-10-10T08:08:43;6.77;;;2.70;;
8139;SDS011;4111;50.972;7.072;2022-10-10T08:11:16;3.37;;;2.50;;
8139;SDS011;4111;50.972;7.072;2022-10-10T08:13:44;4.43;;;2.87;;
8139;SDS011;4111;50.972;7.072;2022-10-10T08:16:10;5.43;;;3.10;;
8139;SDS011;4111;50.972;7.072;2022-10-10T08:18:37;6.80;;;4.00;;
8139;SDS011;4111;50.972;7.072;2022-10-10T08:21:05;7.10;;;2.87;;
8139;SDS011;4111;50.972;7.072;2022-10-10T08:23:34;7.23;;;3.30;;
8139;SDS011;4111;50.972;7.072;2022-10-10T08:26:02;9.13;;;4.43;;
8139;SDS011;4111;50.972;7.072;2022-10-10T08:28:30;3.90;;;3.37;;
8139;SDS011;4111;50.972;7.072;2022-10-10T08:30:56;3.53;;;3.17;;
8139;SDS011;4111;50.972;7.072;2022-10-10T08:33:27;5.83;;;3.30;;
8139;SDS011;4111;50.972;7.072;2022-10-10T08:35:54;7.33;;;3.10;;
8139;SDS011;4111;50.972;7.072;2022-10-10T08:38:20;7.97;;;3.10;;
8139;SDS011;4111;50.972;7.072;2022-10-10T08:40:47;5.90;;;3.17;;
8139;SDS011;4111;50.972;7.072;2022-10-10T08:46:32;6.40;;;3.67;;
8139;SDS011;4111;50.972;7.072;2022-10-10T08:49:05;7.67;;;3.30;;
8139;SDS011;4111;50.972;7.072;2022-10-10T08:51:45;5.97;;;2.80;;
8139;SDS011;4111;50.972;7.072;2022-10-10T08:54:17;6.90;;;3.17;;
8139;SDS011;4111;50.972;7.072;2022-10-10T08:56:46;5.77;;;3.07;;
8139;SDS011;4111;50.972;7.072;2022-10-10T08:59:15;3.33;;;3.03;;
8139;SDS011;4111;50.972;7.072;2022-10-10T09:01:46;4.40;;;2.40;;
8139;SDS011;4111;50.972;7.072;2022-10-10T09:04:34;3.17;;;2.87;;
8139;SDS011;4111;50.972;7.072;2022-10-10T09:07:07;4.33;;;3.00;;
8139;SDS011;4111;50.972;7.072;2022-10-10T09:09:53;8.77;;;3.17;;
8139;SDS011;4111;50.972;7.072;2022-10-10T09:12:32;10.83;;;3.83;;
8139;SDS011;4111;50.972;7.072;2022-10-10T09:15:23;4.87;;;3.10;;
8139;SDS011;4111;50.972;7.072;2022-10-10T09:21:19;7.63;;;3.10;;
8139;SDS011;4111;50.972;7.072;2022-10-10T09:23:50;6.00;;;3.60;;
8139;SDS011;4111;50.972;7.072;2022-10-10T09:26:38;4.57;;;3.13;;
8139;SDS011;4111;50.972;7.072;2022-10-10T09:29:14;5.07;;;3.30;;
8139;SDS011;4111;50.972;7.072;2022-10-10T09:31:46;5.60;;;2.67;;
8139;SDS011;4111;50.972;7.072;2022-10-10T09:34:25;8.50;;;3.83;;
8139;SDS011;4111;50.972;7.072;2022-10-10T09:36:56;11.33;;;3.40;;
8139;SDS011;4111;50.972;7.072;2022-10-10T09:39:34;7.60;;;3.73;;
8139;SDS011;4111;50.972;7.072;2022-10-10T09:42:16;7.40;;;3.10;;
8139;SDS011;4111;50.972;7.072;2022-10-10T09:44:45;8.40;;;3.40;;
8139;SDS011;4111;50.972;7.072;2022-10-10T09:47:12;5.33;;;3.80;;
8139;SDS011;4111;50.972;7.072;2022-10-10T09:49:40;10.00;;;4.23;;
8139;SDS011;4111;50.972;7.072;2022-10-10T09:54:55;4.90;;;3.30;;
8139;SDS011;4111;50.972;7.072;2022-10-10T09:57:27;12.13;;;5.00;;
8139;SDS011;4111;50.972;7.072;2022-10-10T09:59:58;10.60;;;3.90;;
8139;SDS011;4111;50.972;7.072;2022-10-10T10:02:34;8.40;;;4.00;;
8139;SDS011;4111;50.972;7.072;2022-10-10T10:05:00;11.73;;;3.73;;
8139;SDS011;4111;50.972;7.072;2022-10-10T10:07:51;10.00;;;4.00;;
8139;SDS011;4111;50.972;7.072;2022-10-10T10:10:22;5.73;;;3.60;;
8139;SDS011;4111;50.972;7.072;2022-10-10T10:12:51;13.90;;;3.60;;
8139;SDS011;4111;50.972;7.072;2022-10-10T10:15:20;10.63;;;3.97;;
8139;SDS011;4111;50.972;7.072;2022-10-10T10:20:38;5.80;;;3.43;;
8139;SDS011;4111;50.972;7.072;2022-10-10T10:23:22;6.33;;;4.07;;
8139;SDS011;4111;50.972;7.072;2022-10-10T10:26:00;5.13;;;3.47;;
8139;SDS011;4111;50.972;7.072;2022-10-10T10:28:27;10.50;;;3.90;;
8139;SDS011;4111;50.972;7.072;2022-10-10T10:30:55;5.17;;;4.00;;
8139;SDS011;4111;50.972;7.072;2022-10-10T10:42:01;5.87;;;3.83;;
8139;SDS011;4111;50.972;7.072;2022-10-10T10:47:35;7.73;;;4.10;;
8139;SDS011;4111;50.972;7.072;2022-10-10T10:55:34;9.10;;;3.80;;
8139;SDS011;4111;50.972;7.072;2022-10-10T10:58:14;10.47;;;4.17;;
8139;SDS011;4111;50.972;7.072;2022-10-10T11:01:13;6.20;;;3.50;;
8139;SDS011;4111;50.972;7.072;2022-10-10T11:07:14;7.07;;;3.83;;
8139;SDS011;4111;50.972;7.072;2022-10-10T11:15:43;8.47;;;3.70;;
8139;SDS011;4111;50.972;7.072;2022-10-10T11:18:38;8.53;;;4.03;;
8139;SDS011;4111;50.972;7.072;2022-10-10T11:21:13;7.00;;;3.80;;
8139;SDS011;4111;50.972;7.072;2022-10-10T11:24:28;8.23;;;3.87;;
8139;SDS011;4111;50.972;7.072;2022-10-10T11:26:41;5.80;;;3.83;;
8139;SDS011;4111;50.972;7.072;2022-10-10T11:29:12;7.80;;;3.80;;
8139;SDS011;4111;50.972;7.072;2022-10-10T11:32:02;6.80;;;3.47;;
8139;SDS011;4111;50.972;7.072;2022-10-10T11:37:44;8.87;;;4.07;;
8139;SDS011;4111;50.972;7.072;2022-10-10T11:40:28;9.47;;;3.60;;
8139;SDS011;4111;50.972;7.072;2022-10-10T11:43:01;6.97;;;3.20;;
8139;SDS011;4111;50.972;7.072;2022-10-10T11:45:35;5.67;;;2.97;;
8139;SDS011;4111;50.972;7.072;2022-10-10T11:48:12;6.60;;;3.07;;
8139;SDS011;4111;50.972;7.072;2022-10-10T11:50:49;11.40;;;3.70;;
8139;SDS011;4111;50.972;7.072;2022-10-10T11:53:24;8.90;;;3.40;;
8139;SDS011;4111;50.972;7.072;2022-10-10T11:58:38;6.90;;;3.20;;
8139;SDS011;4111;50.972;7.072;2022-10-10T12:01:13;6.43;;;3.10;;
8139;SDS011;4111;50.972;7.072;2022-10-10T12:03:46;8.53;;;3.17;;
8139;SDS011;4111;50.972;7.072;2022-10-10T12:06:20;8.43;;;3.20;;
8139;SDS011;4111;50.972;7.072;2022-10-10T12:08:59;4.30;;;2.67;;
8139;SDS011;4111;50.972;7.072;2022-10-10T12:11:31;6.43;;;3.10;;
8139;SDS011;4111;50.972;7.072;2022-10-10T12:14:01;9.17;;;3.60;;
8139;SDS011;4111;50.972;7.072;2022-10-10T12:16:32;5.73;;;3.07;;
8139;SDS011;4111;50.972;7.072;2022-10-10T12:19:24;4.40;;;2.60;;
8139;SDS011;4111;50.972;7.072;2022-10-10T12:21:52;7.53;;;2.53;;
8139;SDS011;4111;50.972;7.072;2022-10-10T12:24:21;8.73;;;3.37;;
8139;SDS011;4111;50.972;7.072;2022-10-10T12:37:22;8.43;;;3.50;;
8139;SDS011;4111;50.972;7.072;2022-10-10T12:42:35;5.00;;;2.70;;
8139;SDS011;4111;50.972;7.072;2022-10-10T12:47:56;4.57;;;3.13;;
8139;SDS011;4111;50.972;7.072;2022-10-10T12:50:33;5.00;;;3.17;;
8139;SDS011;4111;50.972;7.072;2022-10-10T12:53:20;4.80;;;2.57;;
8139;SDS011;4111;50.972;7.072;2022-10-10T12:55:51;15.03;;;3.80;;
8139;SDS011;4111;50.972;7.072;2022-10-10T12:58:22;5.73;;;2.83;;
8139;SDS011;4111;50.972;7.072;2022-10-10T13:00:54;5.67;;;2.93;;
8139;SDS011;4111;50.972;7.072;2022-10-10T13:05:49;8.00;;;3.07;;
8139;SDS011;4111;50.972;7.072;2022-10-10T13:08:18;6.53;;;2.50;;
8139;SDS011;4111;50.972;7.072;2022-10-10T13:11:11;4.93;;;2.13;;
8139;SDS011;4111;50.972;7.072;2022-10-10T13:13:47;9.13;;;2.87;;
8139;SDS011;4111;50.972;7.072;2022-10-10T13:16:40;4.83;;;2.90;;
8139;SDS011;4111;50.972;7.072;2022-10-10T13:19:15;7.53;;;3.03;;
8139;SDS011;4111;50.972;7.072;2022-10-10T13:21:44;9.63;;;3.20;;
8139;SDS011;4111;50.972;7.072;2022-10-10T13:24:12;12.37;;;3.10;;
8139;SDS011;4111;50.972;7.072;2022-10-10T13:26:43;6.23;;;2.63;;
8139;SDS011;4111;50.972;7.072;2022-10-10T13:31:46;7.70;;;2.50;;
8139;SDS011;4111;50.972;7.072;2022-10-10T13:34:14;5.43;;;2.47;;
8139;SDS011;4111;50.972;7.072;2022-10-10T13:36:51;6.20;;;2.90;;
8139;SDS011;4111;50.972;7.072;2022-10-10T13:39:20;3.73;;;2.30;;
8139;SDS011;4111;50.972;7.072;2022-10-10T13:41:47;4.60;;;2.73;;
8139;SDS011;4111;50.972;7.072;2022-10-10T13:44:14;4.77;;;2.20;;
8139;SDS011;4111;50.972;7.072;2022-10-10T13:46:46;8.47;;;2.73;;
8139;SDS011;4111;50.972;7.072;2022-10-10T13:49:19;8.17;;;3.87;;
8139;SDS011;4111;50.972;7.072;2022-10-10T13:51:48;8.67;;;3.10;;
8139;SDS011;4111;50.972;7.072;2022-10-10T13:54:43;14.53;;;3.30;;
8139;SDS011;4111;50.972;7.072;2022-10-10T13:57:21;10.27;;;2.93;;
8139;SDS011;4111;50.972;7.072;2022-10-10T14:00:13;8.57;;;3.07;;
8139;SDS011;4111;50.972;7.072;2022-10-10T14:02:42;5.53;;;2.60;;
8139;SDS011;4111;50.972;7.072;2022-10-10T14:05:13;8.03;;;2.83;;
8139;SDS011;4111;50.972;7.072;2022-10-10T14:07:45;6.90;;;3.00;;
8139;SDS011;4111;50.972;7.072;2022-10-10T14:10:29;7.83;;;2.73;;
8139;SDS011;4111;50.972;7.072;2022-10-10T14:13:01;9.73;;;3.10;;
8139;SDS011;4111;50.972;7.072;2022-10-10T14:16:28;8.43;;;2.90;;
8139;SDS011;4111;50.972;7.072;2022-10-10T14:18:47;7.20;;;2.83;;
8139;SDS011;4111;50.972;7.072;2022-10-10T14:21:14;7.60;;;3.03;;
8139;SDS011;4111;50.972;7.072;2022-10-10T14:23:41;7.57;;;2.97;;
8139;SDS011;4111;50.972;7.072;2022-10-10T14:26:14;6.43;;;3.07;;
8139;SDS011;4111;50.972;7.072;2022-10-10T14:28:43;10.67;;;4.33;;
8139;SDS011;4111;50.972;7.072;2022-10-10T14:31:11;5.33;;;3.17;;
8139;SDS011;4111;50.972;7.072;2022-10-10T14:33:38;7.83;;;3.13;;
8139;SDS011;4111;50.972;7.072;2022-10-10T14:36:05;13.33;;;3.63;;
8139;SDS011;4111;50.972;7.072;2022-10-10T14:38:31;8.27;;;3.50;;
8139;SDS011;4111;50.972;7.072;2022-10-10T14:40:58;6.00;;;2.77;;
8139;SDS011;4111;50.972;7.072;2022-10-10T14:43:26;9.53;;;2.97;;
8139;SDS011;4111;50.972;7.072;2022-10-10T14:45:53;12.03;;;3.33;;
8139;SDS011;4111;50.972;7.072;2022-10-10T14:48:20;7.93;;;3.03;;
8139;SDS011;4111;50.972;7.072;2022-10-10T14:50:47;8.70;;;2.57;;
8139;SDS011;4111;50.972;7.072;2022-10-10T14:53:14;10.93;;;3.33;;
8139;SDS011;4111;50.972;7.072;2022-10-10T14:55:40;12.87;;;6.30;;
8139;SDS011;4111;50.972;7.072;2022-10-10T14:58:11;15.13;;;3.60;;
8139;SDS011;4111;50.972;7.072;2022-10-10T15:00:39;9.10;;;3.20;;
8139;SDS011;4111;50.972;7.072;2022-10-10T15:03:06;7.30;;;2.77;;
8139;SDS011;4111;50.972;7.072;2022-10-10T15:05:33;16.13;;;5.50;;
8139;SDS011;4111;50.972;7.072;2022-10-10T15:08:00;12.97;;;3.57;;
8139;SDS011;4111;50.972;7.072;2022-10-10T15:10:26;12.47;;;3.07;;
8139;SDS011;4111;50.972;7.072;2022-10-10T15:12:59;16.20;;;3.53;;
8139;SDS011;4111;50.972;7.072;2022-10-10T15:15:26;14.60;;;3.40;;
8139;SDS011;4111;50.972;7.072;2022-10-10T15:17:52;11.23;;;3.60;;
8139;SDS011;4111;50.972;7.072;2022-10-10T15:20:19;12.70;;;3.50;;
8139;SDS011;4111;50.972;7.072;2022-10-10T15:22:49;19.63;;;3.33;;
8139;SDS011;4111;50.972;7.072;2022-10-10T15:25:15;16.87;;;3.93;;
8139;SDS011;4111;50.972;7.072;2022-10-10T15:27:42;12.57;;;3.10;;
8139;SDS011;4111;50.972;7.072;2022-10-10T15:30:08;15.93;;;3.90;;
8139;SDS011;4111;50.972;7.072;2022-10-10T15:32:36;12.77;;;3.80;;
8139;SDS011;4111;50.972;7.072;2022-10-10T15:35:04;11.53;;;3.80;;
8139;SDS011;4111;50.972;7.072;2022-10-10T15:37:31;14.20;;;3.60;;
8139;SDS011;4111;50.972;7.072;2022-10-10T15:39:57;14.77;;;3.23;;
8139;SDS011;4111;50.972;7.072;2022-10-10T15:42:24;11.03;;;3.50;;
8139;SDS011;4111;50.972;7.072;2022-10-10T15:44:50;10.33;;;3.13;;
8139;SDS011;4111;50.972;7.072;2022-10-10T15:47:17;10.53;;;2.87;;
8139;SDS011;4111;50.972;7.072;2022-10-10T15:49:44;8.47;;;3.30;;
8139;SDS011;4111;50.972;7.072;2022-10-10T15:52:11;9.87;;;3.17;;
8139;SDS011;4111;50.972;7.072;2022-10-10T15:54:37;13.83;;;3.37;;
8139;SDS011;4111;50.972;7.072;2022-10-10T15:57:04;11.87;;;3.37;;
8139;SDS011;4111;50.972;7.072;2022-10-10T15:59:31;8.97;;;3.10;;
8139;SDS011;4111;50.972;7.072;2022-10-10T16:01:58;12.67;;;3.23;;
8139;SDS011;4111;50.972;7.072;2022-10-10T16:04:24;13.07;;;3.53;;
8139;SDS011;4111;50.972;7.072;2022-10-10T16:06:51;13.00;;;3.73;;
8139;SDS011;4111;50.972;7.072;2022-10-10T16:09:37;15.43;;;3.97;;
8139;SDS011;4111;50.972;7.072;2022-10-10T16:12:04;11.07;;;3.50;;
8139;SDS011;4111;50.972;7.072;2022-10-10T16:14:31;11.60;;;3.80;;
8139;SDS011;4111;50.972;7.072;2022-10-10T16:16:57;12.53;;;3.80;;
8139;SDS011;4111;50.972;7.072;2022-10-10T16:19:27;14.47;;;3.57;;
8139;SDS011;4111;50.972;7.072;2022-10-10T16:21:54;11.80;;;3.60;;
8139;SDS011;4111;50.972;7.072;2022-10-10T16:24:20;6.07;;;3.17;;
8139;SDS011;4111;50.972;7.072;2022-10-10T16:26:47;10.93;;;3.30;;
8139;SDS011;4111;50.972;7.072;2022-10-10T16:29:13;12.27;;;3.50;;
8139;SDS011;4111;50.972;7.072;2022-10-10T16:31:44;13.63;;;3.67;;
8139;SDS011;4111;50.972;7.072;2022-10-10T16:34:11;8.23;;;3.37;;
8139;SDS011;4111;50.972;7.072;2022-10-10T16:36:40;8.80;;;3.40;;
8139;SDS011;4111;50.972;7.072;2022-10-10T16:39:06;18.17;;;3.27;;
8139;SDS011;4111;50.972;7.072;2022-10-10T16:41:33;15.00;;;6.57;;
8139;SDS011;4111;50.972;7.072;2022-10-10T16:44:13;15.90;;;3.73;;
8139;SDS011;4111;50.972;7.072;2022-10-10T16:46:40;12.57;;;3.83;;
8139;SDS011;4111;50.972;7.072;2022-10-10T16:49:06;10.13;;;3.50;;
8139;SDS011;4111;50.972;7.072;2022-10-10T16:51:33;15.17;;;3.80;;
8139;SDS011;4111;50.972;7.072;2022-10-10T16:54:00;14.30;;;3.43;;
8139;SDS011;4111;50.972;7.072;2022-10-10T16:56:27;7.53;;;3.00;;
8139;SDS011;4111;50.972;7.072;2022-10-10T16:58:56;7.37;;;3.27;;